Time;durP1;ratioP1;P1;durP2;ratioP2;P2;SDS_P1;SDS_P2;PMS_P1;PMS_P2;Temp;Humidity;BMP_temperature;BMP_pressure;BME280_temperature;BME280_humidity;BME280_pressure;Samples;Min_cycle;Max_cycle;Signal;HPM_P1;HPM_P2
2022/07/23 00:01:21;;;;;;;;;;;;;;;23.14;45.46;153474.11;1628676;87;21289;-60
2022/07/23 00:03:47;;;;;;;;;;;;;;;23.18;45.36;153484.56;1629054;87;20179;-60
2022/07/23 00:06:14;;;;;;;;;;;;;;;23.21;45.43;153489.78;1629617;87;20463;-60
2022/07/23 00:08:41;;;;;;;;;;;;;;;23.17;45.51;153480.63;1630245;88;20706;-59
2022/07/23 00:11:08;;;;;;;;;;;;;;;23.10;45.74;153462.31;1643488;86;20236;-60
2022/07/23 00:13:35;;;;;;;;;;;;;;;23.06;45.92;153451.84;1661937;86;21268;-60
2022/07/23 00:16:04;;;;;;;;;;;;;;;23.06;45.96;153453.13;1661878;85;20197;-60
2022/07/23 00:18:32;;;;;;;;;;;;;;;22.98;46.13;153432.22;1640948;86;20233;-60
2022/07/23 00:21:00;;;;;;;;;;;;;;;22.93;46.31;153419.14;1625190;87;20517;-60
2022/07/23 00:23:29;;;;;;;;;;;;;;;22.83;46.50;153395.56;1625276;88;20185;-60
2022/07/23 00:25:56;;;;;;;;;;;;;;;22.77;46.63;153379.88;1625112;88;21254;-59
2022/07/23 00:28:23;;;;;;;;;;;;;;;22.74;46.57;153373.31;1623765;88;20209;-60
2022/07/23 00:30:49;;;;;;;;;;;;;;;22.73;46.61;153370.70;1623483;88;20493;-60
2022/07/23 00:33:16;;;;;;;;;;;;;;;22.78;46.42;153381.22;1623362;87;20920;-59
2022/07/23 00:35:44;;;;;;;;;;;;;;;22.76;46.31;153377.27;1623597;87;20209;-60
2022/07/23 00:38:11;;;;;;;;;;;;;;;22.74;46.23;153373.31;1623542;88;22150;-59
2022/07/23 00:40:39;;;;;;;;;;;;;;;22.71;46.19;153364.19;1623513;88;20477;-59
2022/07/23 00:43:05;;;;;;;;;;;;;;;22.63;46.28;153343.23;1623498;87;20196;-60
2022/07/23 00:45:32;;;;;;;;;;;;;;;22.60;46.24;153338.00;1623538;87;20244;-60
2022/07/23 00:48:00;;;;;;;;;;;;;;;22.54;46.29;153322.31;1623288;87;20244;-59
2022/07/23 00:50:28;;;;;;;;;;;;;;;22.46;46.40;153301.36;1623200;87;21144;-59
2022/07/23 00:52:55;;;;;;;;;;;;;;;22.39;46.52;153283.02;1623177;88;20501;-59
2022/07/23 00:55:24;;;;;;;;;;;;;;;22.35;46.67;153272.56;1623129;87;33362;-59
2022/07/23 00:57:51;;;;;;;;;;;;;;;22.41;46.63;153289.58;1623124;87;20988;-59
2022/07/23 01:00:18;;;;;;;;;;;;;;;22.52;46.50;153315.77;1622942;87;20284;-60
2022/07/23 01:02:46;;;;;;;;;;;;;;;22.63;46.22;153343.23;1623356;87;20215;-60
2022/07/23 01:05:13;;;;;;;;;;;;;;;22.65;46.04;153348.47;1624795;86;20507;-60
2022/07/23 01:07:43;;;;;;;;;;;;;;;22.61;45.94;153340.63;1628017;88;20215;-60
2022/07/23 01:12:56;;;;;;;;;;;;;;;22.48;46.10;153305.31;1662260;86;20504;-60
2022/07/23 01:15:23;;;;;;;;;;;;;;;22.56;45.78;153327.55;1662546;86;21157;-59
2022/07/23 01:17:50;;;;;;;;;;;;;;;22.54;45.66;153322.31;1651782;86;20501;-59
2022/07/23 01:20:17;;;;;;;;;;;;;;;22.50;45.66;153311.88;1623342;87;20165;-60
2022/07/23 01:22:45;;;;;;;;;;;;;;;22.49;45.65;153309.25;1623343;87;20192;-60
2022/07/23 01:25:12;;;;;;;;;;;;;;;22.43;45.68;153293.47;1623409;87;20256;-60
2022/07/23 01:27:41;;;;;;;;;;;;;;;22.35;45.78;153272.56;1622800;87;22009;-60
2022/07/23 01:30:09;;;;;;;;;;;;;;;22.30;45.92;153262.11;1622602;87;20267;-60
2022/07/23 01:32:36;;;;;;;;;;;;;;;22.22;46.02;153241.20;1623025;88;20228;-60
2022/07/23 01:35:04;;;;;;;;;;;;;;;22.13;46.17;153218.97;1623196;88;20249;-60
2022/07/23 01:37:31;;;;;;;;;;;;;;;22.00;46.38;153184.94;1623970;88;20153;-59
2022/07/23 01:39:58;;;;;;;;;;;;;;;21.94;46.55;153170.55;1623444;88;21244;-59
2022/07/23 01:42:25;;;;;;;;;;;;;;;21.91;46.67;153161.44;1623207;88;20418;-59
2022/07/23 01:44:52;;;;;;;;;;;;;;;21.85;46.95;153147.03;1623344;87;20213;-58
2022/07/23 01:47:21;;;;;;;;;;;;;;;21.81;47.08;153137.86;1623265;88;20454;-59
2022/07/23 01:49:49;;;;;;;;;;;;;;;21.74;47.29;153120.86;1623466;88;20185;-59
2022/07/23 01:52:21;;;;;;;;;;;;;;;21.72;47.43;153115.63;1591578;88;21131;-60
2022/07/23 01:54:49;;;;;;;;;;;;;;;21.70;47.62;153110.41;1623860;87;20280;-59
2022/07/23 01:57:17;;;;;;;;;;;;;;;21.71;47.57;153111.73;1623519;88;20269;-59
2022/07/23 01:59:44;;;;;;;;;;;;;;;21.77;47.42;153126.08;1623554;88;20240;-60
2022/07/23 02:02:11;;;;;;;;;;;;;;;21.85;47.24;153147.03;1623593;88;20221;-59
2022/07/23 02:04:38;;;;;;;;;;;;;;;21.91;47.07;153161.44;1624904;88;21133;-60
2022/07/23 02:07:04;;;;;;;;;;;;;;;21.96;46.92;153175.78;1628369;86;20216;-59
2022/07/23 02:09:33;;;;;;;;;;;;;;;22.03;46.71;153192.78;1628480;86;20232;-59
2022/07/23 02:11:59;;;;;;;;;;;;;;;22.02;46.54;153190.17;1654979;86;20209;-60
2022/07/23 02:14:26;;;;;;;;;;;;;;;21.93;46.55;153167.94;1662705;86;20181;-60
2022/07/23 02:16:54;;;;;;;;;;;;;;;21.80;46.79;153133.97;1662718;86;21240;-60
2022/07/23 02:19:20;;;;;;;;;;;;;;;;;;1627217;86;20187;-59
2022/07/23 02:21:47;;;;;;;;;;;;;;;21.42;47.55;153039.78;1623489;88;20228;-59
2022/07/23 02:24:13;;;;;;;;;;;;;;;21.26;47.96;152997.94;1623544;87;20257;-60
2022/07/23 02:26:41;;;;;;;;;;;;;;;21.15;48.33;152971.81;1623621;87;20503;-59
2022/07/23 02:29:08;;;;;;;;;;;;;;;21.10;48.53;152957.44;1623395;87;21207;-59
2022/07/23 02:31:35;;;;;;;;;;;;;;;21.02;48.70;152937.81;1623511;87;20221;-60
2022/07/23 02:34:02;;;;;;;;;;;;;;;20.99;48.86;152929.98;1623457;87;20213;-60
2022/07/23 02:36:29;;;;;;;;;;;;;;;20.95;49.04;152920.81;1623403;87;20221;-59
2022/07/23 02:38:56;;;;;;;;;;;;;;;20.95;49.10;152920.81;1623356;88;20217;-59
2022/07/23 02:41:25;;;;;;;;;;;;;;;20.93;49.17;152914.31;1622805;87;20833;-60
2022/07/23 02:43:51;;;;;;;;;;;;;;;20.89;49.26;152906.48;1622894;87;20244;-60
2022/07/23 02:46:18;;;;;;;;;;;;;;;20.89;49.40;152906.48;1622911;87;20233;-60
2022/07/23 02:48:46;;;;;;;;;;;;;;;20.96;49.25;152922.16;1622825;87;20533;-60
2022/07/23 02:51:12;;;;;;;;;;;;;;;20.96;49.25;152922.16;1623009;87;20466;-60
2022/07/23 02:53:41;;;;;;;;;;;;;;;21.00;49.09;152932.59;1623532;87;21140;-60
2022/07/23 02:56:08;;;;;;;;;;;;;;;21.04;49.04;152943.05;1623380;87;20489;-60
2022/07/23 02:58:35;;;;;;;;;;;;;;;21.13;48.94;152966.59;1624022;88;20252;-60
2022/07/23 03:01:02;;;;;;;;;;;;;;;21.15;48.80;152971.81;1623398;88;20209;-60
2022/07/23 03:03:29;;;;;;;;;;;;;;;21.13;48.85;152965.27;1623526;87;20233;-60
2022/07/23 03:05:56;;;;;;;;;;;;;;;21.10;48.90;152958.70;1627225;88;21199;-59
2022/07/23 03:08:26;;;;;;;;;;;;;;;21.13;48.93;152966.59;1628315;86;20181;-59
2022/07/23 03:10:54;;;;;;;;;;;;;;;21.14;48.92;152967.88;1639708;86;20414;-59
2022/07/23 03:13:21;;;;;;;;;;;;;;;21.21;48.94;152984.88;1662712;86;20190;-59
2022/07/23 03:15:48;;;;;;;;;;;;;;;21.23;48.83;152990.09;1662599;86;20189;-59
2022/07/23 03:18:16;;;;;;;;;;;;;;;21.26;48.88;152997.94;1644577;86;21265;-58
2022/07/23 03:20:43;;;;;;;;;;;;;;;21.27;48.84;153001.88;1623507;87;20501;-58
2022/07/23 03:23:11;;;;;;;;;;;;;;;21.31;48.81;153011.00;1623634;88;20253;-59
2022/07/23 03:25:38;;;;;;;;;;;;;;;21.40;48.71;153033.22;1624061;88;20299;-59
2022/07/23 03:28:05;;;;;;;;;;;;;;;21.52;48.51;153063.28;1623486;88;20237;-59
2022/07/23 03:30:33;;;;;;;;;;;;;;;21.58;48.45;153079.00;1623500;87;20289;-59
2022/07/23 03:33:00;;;;;;;;;;;;;;;21.67;48.35;153102.56;1623747;88;21231;-59
2022/07/23 03:35:27;;;;;;;;;;;;;;;21.79;48.30;153132.64;1623521;87;20198;-59
2022/07/23 03:38:08;;;;;;;;;;;;;;;21.89;48.32;153157.48;1603663;88;20535;-60
2022/07/23 03:40:35;;;;;;;;;;;;;;;22.05;48.26;153198.00;1623635;87;20177;-60
2022/07/23 03:43:02;;;;;;;;;;;;;;;22.13;48.23;153217.63;1623647;87;21846;-60
2022/07/23 03:45:28;;;;;;;;;;;;;;;22.20;48.25;153235.92;1623553;87;20202;-60
2022/07/23 03:47:55;;;;;;;;;;;;;;;22.24;48.29;153246.44;1623529;87;20237;-60
2022/07/23 03:50:22;;;;;;;;;;;;;;;22.26;48.47;153250.33;1623387;88;20236;-60
2022/07/23 03:52:49;;;;;;;;;;;;;;;22.27;48.76;153254.27;1623499;87;20181;-60
2022/07/23 03:55:16;;;;;;;;;;;;;;;22.30;48.94;153262.11;1623420;88;21141;-59
2022/07/23 03:57:44;;;;;;;;;;;;;;;22.35;49.16;153272.56;1623462;87;20221;-59
2022/07/23 04:00:12;;;;;;;;;;;;;;;22.49;49.28;153307.92;1623372;87;20535;-59
2022/07/23 04:02:42;;;;;;;;;;;;;;;22.59;49.35;153335.39;1623434;87;20245;-60
2022/07/23 04:05:10;;;;;;;;;;;;;;;22.72;49.38;153368.09;1625542;86;20216;-60
2022/07/23 04:07:37;;;;;;;;;;;;;;;22.89;49.45;153411.30;1628421;86;21256;-60
2022/07/23 04:10:06;;;;;;;;;;;;;;;23.05;49.46;153450.52;1628309;86;20193;-60
2022/07/23 04:12:33;;;;;;;;;;;;;;;23.21;49.17;153489.78;1630274;88;20165;-60
2022/07/23 04:15:00;;;;;;;;;;;;;;;23.38;48.97;153534.34;1630156;87;20695;-61
2022/07/23 04:17:28;;;;;;;;;;;;;;;23.59;48.50;153586.70;1633922;86;20220;-60
2022/07/23 04:19:55;;;;;;;;;;;;;;;23.67;48.17;153607.62;1663024;86;21244;-61
2022/07/23 04:22:23;;;;;;;;;;;;;;;23.78;48.05;153635.11;1662296;86;20181;-60
2022/07/23 04:24:50;;;;;;;;;;;;;;;23.88;47.80;153661.33;1662645;86;20185;-60
2022/07/23 04:27:17;;;;;;;;;;;;;;;23.96;47.68;153680.92;1662439;86;20493;-60
2022/07/23 04:29:44;;;;;;;;;;;;;;;24.09;47.45;153712.41;1656641;86;20181;-60
2022/07/23 04:32:11;;;;;;;;;;;;;;;24.18;47.34;153735.95;1654842;86;21165;-59
2022/07/23 04:34:37;;;;;;;;;;;;;;;24.26;47.26;153756.94;1655166;86;20429;-59
2022/07/23 04:37:06;;;;;;;;;;;;;;;24.38;47.08;153785.72;1654794;86;20495;-59
2022/07/23 04:39:33;;;;;;;;;;;;;;;24.39;47.05;153788.34;1654930;86;20731;-59
2022/07/23 04:42:00;;;;;;;;;;;;;;;24.45;46.86;153804.09;1655159;86;20197;-59
2022/07/23 04:44:28;;;;;;;;;;;;;;;24.46;46.85;153806.70;1655046;86;21219;-60
2022/07/23 04:46:55;;;;;;;;;;;;;;;24.51;46.84;153819.78;1655249;86;20627;-60
2022/07/23 04:49:25;;;;;;;;;;;;;;;24.64;46.70;153851.19;1655383;85;20626;-60
2022/07/23 04:51:52;;;;;;;;;;;;;;;24.76;46.52;153882.70;1655018;86;20197;-60
2022/07/23 04:54:19;;;;;;;;;;;;;;;24.91;46.37;153919.39;1655157;86;20196;-60
2022/07/23 04:56:46;;;;;;;;;;;;;;;25.07;46.28;153959.98;1655273;86;21267;-60
2022/07/23 04:59:13;;;;;;;;;;;;;;;25.23;46.09;154000.59;1655114;86;20174;-59
2022/07/23 05:01:41;;;;;;;;;;;;;;;25.39;45.92;154041.20;1655314;86;20519;-60
2022/07/23 05:04:10;;;;;;;;;;;;;;;25.53;45.45;154077.95;1655136;86;20206;-60
2022/07/23 05:06:37;;;;;;;;;;;;;;;25.59;45.28;154093.66;1629095;86;20196;-60
2022/07/23 05:09:03;;;;;;;;;;;;;;;25.66;45.24;154110.70;1628497;86;21158;-61
2022/07/23 05:11:31;;;;;;;;;;;;;;;25.79;44.90;154143.47;1644037;86;20215;-61
2022/07/23 05:14:00;;;;;;;;;;;;;;;25.86;44.65;154160.52;1655867;86;20198;-61
2022/07/23 05:16:28;;;;;;;;;;;;;;;25.92;44.70;154176.23;1655278;86;20118;-60
2022/07/23 05:18:57;;;;;;;;;;;;;;;26.00;44.62;154197.23;1631863;86;20954;-61
2022/07/23 05:21:24;;;;;;;;;;;;;;;26.07;44.62;154212.95;1623693;87;21205;-61
2022/07/23 05:23:54;;;;;;;;;;;;;;;26.21;44.46;154249.72;1623911;87;20144;-60
2022/07/23 05:26:21;;;;;;;;;;;;;;;26.41;44.36;154299.48;1623781;88;20219;-60
2022/07/23 05:28:49;;;;;;;;;;;;;;;26.53;43.94;154330.98;1624259;88;20213;-60
2022/07/23 05:31:16;;;;;;;;;;;;;;;26.57;43.95;154340.17;1625032;87;20217;-60
2022/07/23 05:33:43;;;;;;;;;;;;;;;26.68;43.75;154367.70;1625284;88;21240;-60
2022/07/23 05:36:10;;;;;;;;;;;;;;;26.82;43.75;154403.11;1624976;87;20201;-60
2022/07/23 05:38:39;;;;;;;;;;;;;;;27.03;43.45;154458.23;1624395;88;20233;-60
2022/07/23 05:41:06;;;;;;;;;;;;;;;27.24;43.17;154510.70;1625333;88;20526;-60
2022/07/23 05:43:33;;;;;;;;;;;;;;;27.48;42.57;154569.70;1625493;88;20225;-60
2022/07/23 05:46:02;;;;;;;;;;;;;;;27.67;42.19;154618.31;1625269;87;22205;-60
2022/07/23 05:48:29;;;;;;;;;;;;;;;27.83;41.91;154658.98;1625123;88;20190;-61
2022/07/23 05:51:06;;;;;;;;;;;;;;;27.97;41.57;154695.75;1624964;87;20209;-61
2022/07/23 05:53:35;;;;;;;;;;;;;;;28.09;41.06;154724.58;1625450;88;20178;-61
2022/07/23 05:56:09;;;;;;;;;;;;;;;28.01;41.04;154706.23;1623773;87;20232;-60
2022/07/23 05:58:36;;;;;;;;;;;;;;;28.12;41.14;154732.45;1624898;88;22694;-60
2022/07/23 06:01:03;;;;;;;;;;;;;;;28.29;40.75;154777.12;1624516;87;20213;-60
2022/07/23 06:03:32;;;;;;;;;;;;;;;28.45;40.65;154817.81;1624302;87;20480;-60
2022/07/23 06:06:00;;;;;;;;;;;;;;;28.62;40.25;154858.48;1629101;86;20223;-60
2022/07/23 06:08:27;;;;;;;;;;;;;;;28.74;39.86;154890.00;1630323;86;20481;-60
2022/07/23 06:10:56;;;;;;;;;;;;;;;28.76;39.64;154893.97;1641899;86;20181;-60
2022/07/23 06:13:23;;;;;;;;;;;;;;;28.81;39.81;154907.13;1664392;86;20477;-60
2022/07/23 06:15:50;;;;;;;;;;;;;;;29.01;39.66;154959.66;1664903;86;20209;-61
2022/07/23 06:18:18;;;;;;;;;;;;;;;29.25;39.42;155018.70;1645798;86;20204;-61
2022/07/23 06:20:46;;;;;;;;;;;;;;;29.45;39.01;155071.28;1625417;87;20490;-61
2022/07/23 06:23:13;;;;;;;;;;;;;;;29.48;38.45;155076.53;1624932;87;21210;-61
2022/07/23 06:25:40;;;;;;;;;;;;;;;29.40;39.00;155058.11;1625225;88;20261;-61
2022/07/23 06:28:07;;;;;;;;;;;;;;;29.53;38.57;155089.70;1625191;88;20244;-60
2022/07/23 06:30:35;;;;;;;;;;;;;;;29.58;38.58;155102.83;1623878;87;20178;-61
2022/07/23 06:33:03;;;;;;;;;;;;;;;29.62;38.34;155113.31;1623820;87;20705;-61
2022/07/23 06:35:30;;;;;;;;;;;;;;;29.69;38.42;155131.69;1623717;88;23213;-59
2022/07/23 06:37:56;;;;;;;;;;;;;;;29.83;37.84;155165.86;1623453;88;20206;-60
2022/07/23 06:40:24;;;;;;;;;;;;;;;29.72;37.69;155139.56;1623590;88;20213;-61
2022/07/23 06:42:51;;;;;;;;;;;;;;;29.62;37.66;155113.31;1623573;87;20225;-60
2022/07/23 06:45:20;;;;;;;;;;;;;;;29.57;37.96;155100.20;1623521;88;20230;-61
2022/07/23 06:47:47;;;;;;;;;;;;;;;29.69;38.02;155131.69;1623632;87;21304;-61
2022/07/23 06:50:14;;;;;;;;;;;;;;;29.72;37.11;155138.28;1623486;87;20237;-61
2022/07/23 06:52:43;;;;;;;;;;;;;;;29.49;37.13;155080.50;1623822;88;20216;-60
2022/07/23 06:55:10;;;;;;;;;;;;;;;29.30;37.82;155033.16;1623476;88;20216;-61
2022/07/23 06:57:38;;;;;;;;;;;;;;;29.21;38.01;155009.55;1624106;88;20182;-60
2022/07/23 07:00:08;;;;;;;;;;;;;;;29.13;37.82;154989.84;1623720;88;21841;-60
2022/07/23 07:02:35;;;;;;;;;;;;;;;29.15;37.50;154995.09;1623701;88;20182;-60
2022/07/23 07:05:03;;;;;;;;;;;;;;;29.01;37.61;154959.66;1625282;88;20212;-60
2022/07/23 07:07:30;;;;;;;;;;;;;;;28.96;37.95;154945.19;1628472;88;20165;-60
2022/07/23 07:09:58;;;;;;;;;;;;;;;28.97;37.37;154949.16;1628492;86;20216;-60
2022/07/23 07:12:26;;;;;;;;;;;;;;;28.91;37.47;154932.08;1661280;86;22087;-60
2022/07/23 07:14:54;;;;;;;;;;;;;;;28.90;37.75;154929.45;1662502;86;20173;-60
2022/07/23 07:17:21;;;;;;;;;;;;;;;28.84;37.45;154916.28;1659598;86;20205;-60
2022/07/23 07:19:48;;;;;;;;;;;;;;;28.78;37.32;154899.22;1623586;88;20210;-60
2022/07/23 07:22:16;;;;;;;;;;;;;;;28.79;37.03;154901.84;1623633;87;20260;-60
2022/07/23 07:24:42;;;;;;;;;;;;;;;28.82;37.18;154911.05;1623627;88;21260;-77
2022/07/23 07:27:28;;;;;;;;;;;;;;;28.95;37.15;154942.58;1623486;88;20248;-76
2022/07/23 07:29:55;;;;;;;;;;;;;;;29.15;36.96;154995.09;1623520;87;20216;-75
2022/07/23 07:32:22;;;;;;;;;;;;;;;29.25;36.96;155018.70;1623331;88;20510;-77
2022/07/23 07:34:48;;;;;;;;;;;;;;;29.48;36.48;155076.53;1623603;88;20490;-77
2022/07/23 07:37:15;;;;;;;;;;;;;;;29.67;35.70;155125.16;1623656;87;21262;-76
2022/07/23 07:39:42;;;;;;;;;;;;;;;29.60;35.72;155108.08;1624006;87;20241;-76
2022/07/23 07:42:09;;;;;;;;;;;;;;;29.38;35.92;155052.88;1623485;88;20249;-77
2022/07/23 07:44:36;;;;;;;;;;;;;;;29.27;35.49;155025.28;1623577;87;20165;-77
2022/07/23 07:47:03;;;;;;;;;;;;;;;29.20;35.74;155006.92;1623610;87;20218;-77
2022/07/23 07:49:30;;;;;;;;;;;;;;;29.08;36.03;154976.72;1623639;87;21243;-77
2022/07/23 07:51:57;;;;;;;;;;;;;;;29.16;36.08;154996.38;1623518;87;20242;-75
2022/07/23 07:54:24;;;;;;;;;;;;;;;29.26;35.63;155021.33;1623544;88;20217;-75
2022/07/23 07:56:50;;;;;;;;;;;;;;;29.22;35.62;155010.84;1623550;87;20241;-76
2022/07/23 07:59:17;;;;;;;;;;;;;;;29.18;35.59;155000.34;1623220;88;20542;-76
2022/07/23 08:01:44;;;;;;;;;;;;;;;29.22;35.46;155010.84;1623372;87;21209;-76
2022/07/23 08:04:12;;;;;;;;;;;;;;;29.27;35.30;155023.95;1622811;88;20241;-76
2022/07/23 08:06:38;;;;;;;;;;;;;;;29.30;34.93;155031.88;1602652;89;20201;-76
2022/07/23 08:09:05;;;;;;;;;;;;;;;29.25;34.77;155018.70;1602507;89;20249;-76
2022/07/23 08:11:32;;;;;;;;;;;;;;;29.12;34.72;154987.22;1637964;86;20216;-77
2022/07/23 08:14:00;;;;;;;;;;;;;;;29.02;34.17;154962.28;1662603;86;20430;-76
2022/07/23 08:16:27;;;;;;;;;;;;;;;28.97;34.50;154947.81;1662402;86;20272;-76
2022/07/23 08:18:54;;;;;;;;;;;;;;;28.95;34.48;154942.58;1634555;86;20236;-75
2022/07/23 08:21:21;;;;;;;;;;;;;;;28.97;34.71;154947.81;1623554;87;21029;-76
2022/07/23 08:23:48;;;;;;;;;;;;;;;28.99;34.70;154953.06;1623596;88;20216;-76
2022/07/23 08:26:14;;;;;;;;;;;;;;;28.99;35.16;154954.41;1623383;87;20543;-76
2022/07/23 08:28:41;;;;;;;;;;;;;;;29.10;34.40;154980.64;1623601;88;20228;-76
2022/07/23 08:31:08;;;;;;;;;;;;;;;29.07;34.24;154972.77;1623530;88;20225;-76
2022/07/23 08:33:35;;;;;;;;;;;;;;;28.99;34.44;154953.06;1623630;88;20719;-76
2022/07/23 08:36:03;;;;;;;;;;;;;;;29.02;34.76;154962.28;1623315;87;20213;-76
2022/07/23 08:38:30;;;;;;;;;;;;;;;29.06;34.98;154970.14;1623575;87;21250;-76
2022/07/23 08:41:00;;;;;;;;;;;;;;;29.05;34.61;154968.81;1623268;88;20501;-76
2022/07/23 08:43:28;;;;;;;;;;;;;;;28.98;34.61;154951.78;1623481;87;20216;-77
2022/07/23 08:45:56;;;;;;;;;;;;;;;28.99;34.87;154953.06;1623747;87;20219;-76
2022/07/23 08:48:25;;;;;;;;;;;;;;;29.12;34.33;154987.22;1623719;88;20212;-76
2022/07/23 08:50:54;;;;;;;;;;;;;;;29.18;33.62;155000.34;1624086;87;21238;-77
2022/07/23 08:53:21;;;;;;;;;;;;;;;29.20;33.39;155005.59;1623551;87;20224;-76
2022/07/23 08:55:52;;;;;;;;;;;;;;;29.27;33.73;155025.28;1623470;88;20216;-76
2022/07/23 08:58:19;;;;;;;;;;;;;;;29.43;33.62;155066.03;1623519;87;20841;-76
2022/07/23 09:00:46;;;;;;;;;;;;;;;29.55;33.09;155094.95;1623944;87;20238;-76
2022/07/23 09:03:18;;;;;;;;;;;;;;;29.54;33.27;155092.33;1623495;88;21313;-75
2022/07/23 09:05:45;;;;;;;;;;;;;;;29.63;33.18;155114.66;1626600;87;20448;-75
2022/07/23 09:08:19;;;;;;;;;;;;;;;29.87;32.39;155176.36;1628304;88;20235;-75
2022/07/23 09:10:48;;;;;;;;;;;;;;;30.05;31.43;155221.08;1637887;86;20684;-76
2022/07/23 09:13:34;;;;;;;;;;;;;;;30.03;31.55;155215.83;1662484;86;20496;-76
2022/07/23 09:16:15;;;;;;;;;;;;;;;29.90;31.92;155184.23;1662803;85;20450;-75
2022/07/23 09:18:47;;;;;;;;;;;;;;;30.00;31.71;155210.53;1637440;86;20189;-75
2022/07/23 09:21:30;;;;;;;;;;;;;;;30.22;31.70;155264.42;1622883;87;20273;-75
2022/07/23 09:24:07;;;;;;;;;;;;;;;30.42;32.45;155315.69;1623122;87;20681;-76
2022/07/23 09:26:42;;;;;;;;;;;;;;;30.38;32.16;155305.14;1623415;88;20224;-76
2022/07/23 09:29:13;;;;;;;;;;;;;;;30.26;34.10;155276.25;1623539;87;20257;-77
2022/07/23 09:31:52;;;;;;;;;;;;;;;30.29;35.12;155282.84;1623551;88;20415;-77
2022/07/23 09:34:27;;;;;;;;;;;;;;;30.45;35.37;155323.56;1623651;87;20233;-77
2022/07/23 09:37:00;;;;;;;;;;;;;;;30.56;35.08;155352.44;1624050;87;20949;-78
2022/07/23 09:39:31;;;;;;;;;;;;;;;30.75;35.28;155399.81;1622463;88;20608;-76
2022/07/23 09:42:22;;;;;;;;;;;;;;;30.87;34.61;155431.38;1624007;87;20526;-77
2022/07/23 09:44:50;;;;;;;;;;;;;;;30.94;34.17;155447.13;1623831;87;20193;-77
2022/07/23 09:47:17;;;;;;;;;;;;;;;31.13;33.80;155497.06;1623850;87;20474;-76
2022/07/23 09:50:05;;;;;;;;;;;;;;;31.29;34.09;155536.56;1624178;87;20685;-76
2022/07/23 09:52:34;;;;;;;;;;;;;;;31.25;34.83;155526.00;1623658;88;20867;-76
2022/07/23 09:55:02;;;;;;;;;;;;;;;31.24;34.44;155523.39;1623819;87;21248;-78
2022/07/23 09:57:28;;;;;;;;;;;;;;;31.19;33.87;155510.20;1623717;87;20486;-78
2022/07/23 09:59:57;;;;;;;;;;;;;;;31.16;32.90;155504.95;1623714;88;20542;-77
2022/07/23 10:02:25;;;;;;;;;;;;;;;31.23;34.64;155520.75;1623610;87;20253;-77
2022/07/23 10:04:57;;;;;;;;;;;;;;;31.32;36.38;155544.45;1621862;88;20633;-75
2022/07/23 10:07:26;;;;;;;;;;;;;;;31.34;36.46;155549.70;1627556;88;21169;-76
2022/07/23 10:09:55;;;;;;;;;;;;;;;31.34;37.09;155549.70;1621982;88;20191;-78
2022/07/23 10:14:57;;;;;;;;;;;;;;;31.33;36.53;155547.08;1662489;86;20176;-76
2022/07/23 10:17:23;;;;;;;;;;;;;;;31.35;35.99;155552.33;1658979;86;20224;-78
2022/07/23 10:19:54;;;;;;;;;;;;;;;31.38;35.51;155558.87;1623716;87;20192;-79
2022/07/23 10:22:28;;;;;;;;;;;;;;;31.39;35.55;155562.84;1623636;87;20205;-78
2022/07/23 10:25:10;;;;;;;;;;;;;;;31.42;35.48;155570.72;1623926;88;20216;-77
2022/07/23 10:28:03;;;;;;;;;;;;;;;31.49;35.58;155586.47;1623556;87;20457;-77
2022/07/23 10:30:41;;;;;;;;;;;;;;;31.55;35.59;155602.28;1623567;87;20462;-77
2022/07/23 10:33:19;;;;;;;;;;;;;;;31.46;35.43;155578.59;1623690;87;21154;-76
2022/07/23 10:35:56;;;;;;;;;;;;;;;31.36;35.29;155554.95;1623166;87;20848;-76
2022/07/23 10:38:32;;;;;;;;;;;;;;;31.20;35.25;155512.88;1623615;87;20217;-77
2022/07/23 10:41:04;;;;;;;;;;;;;;;31.05;35.43;155476.02;1623961;87;20568;-76
2022/07/23 10:43:31;;;;;;;;;;;;;;;31.03;35.57;155469.47;1623705;87;20226;-78
2022/07/23 10:46:31;;;;;;;;;;;;;;;31.08;35.29;155483.94;1623566;87;21316;-76
2022/07/23 10:49:22;;;;;;;;;;;;;;;31.06;35.09;155478.69;1623543;87;20205;-76
2022/07/23 10:52:12;;;;;;;;;;;;;;;30.91;35.25;155439.25;1623709;87;20213;-76
2022/07/23 10:54:39;;;;;;;;;;;;;;;30.76;35.59;155402.44;1620280;88;20185;-76
2022/07/23 10:57:08;;;;;;;;;;;;;;;30.65;35.92;155373.55;1623653;87;20269;-76
2022/07/23 11:00:13;;;;;;;;;;;;;;;30.58;36.04;155356.41;1623498;87;21145;-77
2022/07/23 11:02:33;;;;;;;;;;;;;;;30.52;36.06;155341.94;1622186;87;20169;-76
2022/07/23 11:05:01;;;;;;;;;;;;;;;30.41;35.75;155313.06;1625100;86;20187;-76
2022/07/23 11:07:28;;;;;;;;;;;;;;;30.25;36.00;155273.63;1628513;88;20425;-76
2022/07/23 11:09:56;;;;;;;;;;;;;;;30.16;36.03;155251.30;1628807;87;20231;-76
2022/07/23 11:12:30;;;;;;;;;;;;;;;30.09;36.20;155231.58;1660543;86;21160;-76
2022/07/23 11:15:11;;;;;;;;;;;;;;;30.02;36.29;155214.50;1662347;86;20213;-75
2022/07/23 11:17:47;;;;;;;;;;;;;;;29.96;36.43;155198.70;1654689;86;20194;-75
2022/07/23 11:20:21;;;;;;;;;;;;;;;29.87;36.62;155177.69;1623193;88;20232;-75
2022/07/23 11:22:50;;;;;;;;;;;;;;;29.82;36.92;155163.23;1623593;87;20238;-76
2022/07/23 11:25:30;;;;;;;;;;;;;;;29.77;37.08;155150.11;1623527;88;21734;-76
2022/07/23 11:28:16;;;;;;;;;;;;;;;29.79;37.38;155155.36;1623481;87;20217;-76
2022/07/23 11:30:45;;;;;;;;;;;;;;;29.79;36.95;155155.36;1623941;87;20552;-76
2022/07/23 11:33:16;;;;;;;;;;;;;;;29.73;37.02;155142.25;1625076;87;20205;-76
2022/07/23 11:35:46;;;;;;;;;;;;;;;29.69;36.99;155131.69;1625381;88;20201;-76
2022/07/23 11:38:14;;;;;;;;;;;;;;;29.64;37.08;155118.56;1625202;88;21238;-76
2022/07/23 11:40:43;;;;;;;;;;;;;;;29.60;37.03;155108.08;1625546;87;20408;-74
2022/07/23 11:43:10;;;;;;;;;;;;;;;29.53;37.26;155089.70;1605675;88;20258;-74
2022/07/23 11:45:41;;;;;;;;;;;;;;;29.45;37.34;155071.28;1625164;88;20471;-74
2022/07/23 11:48:18;;;;;;;;;;;;;;;29.46;37.53;155072.63;1625475;88;20240;-74
2022/07/23 11:50:45;;;;;;;;;;;;;;;29.47;37.13;155073.91;1625170;88;21397;-74
2022/07/23 11:53:12;;;;;;;;;;;;;;;29.41;37.03;155060.78;1625194;87;20257;-75
2022/07/23 11:55:39;;;;;;;;;;;;;;;29.35;37.58;155043.66;1625583;88;20186;-75
2022/07/23 11:58:05;;;;;;;;;;;;;;;29.34;37.39;155041.03;1625293;88;20501;-76
2022/07/23 12:00:33;;;;;;;;;;;;;;;29.35;37.27;155045.00;1625190;87;20225;-75
2022/07/23 12:03:01;;;;;;;;;;;;;;;29.39;37.14;155055.50;1625414;88;21240;-75
2022/07/23 12:05:32;;;;;;;;;;;;;;;29.48;37.22;155076.53;1627791;88;20192;-76
2022/07/23 12:07:59;;;;;;;;;;;;;;;29.55;37.08;155094.95;1630600;88;20428;-75
2022/07/23 12:10:35;;;;;;;;;;;;;;;29.62;37.09;155113.31;1635134;86;20197;-75
2022/07/23 12:13:06;;;;;;;;;;;;;;;29.65;37.06;155121.19;1664703;86;20116;-74
2022/07/23 12:15:38;;;;;;;;;;;;;;;29.70;37.14;155134.31;1664130;86;21149;-74
2022/07/23 12:18:07;;;;;;;;;;;;;;;29.76;37.09;155147.50;1621136;87;20167;-74
2022/07/23 12:20:36;;;;;;;;;;;;;;;29.77;36.97;155150.11;1572084;90;20212;-74
2022/07/23 12:23:05;;;;;;;;;;;;;;;29.78;36.57;155152.73;1572067;90;20231;-74
2022/07/23 12:25:41;;;;;;;;;;;;;;;29.77;36.43;155150.11;1572196;90;20473;-74
2022/07/23 12:28:18;;;;;;;;;;;;;;;29.79;36.45;155155.36;1572350;90;21115;-75
2022/07/23 12:30:51;;;;;;;;;;;;;;;29.83;36.73;155167.16;1574128;88;20493;-74
2022/07/23 12:33:34;;;;;;;;;;;;;;;29.81;37.42;155160.61;1619445;88;20179;-75
2022/07/23 12:36:03;;;;;;;;;;;;;;;29.80;38.12;155157.98;1620573;87;20950;-75
2022/07/23 12:38:39;;;;;;;;;;;;;;;29.80;39.63;155157.98;1652551;86;20213;-75
2022/07/23 12:41:06;;;;;;;;;;;;;;;29.78;40.59;155154.03;1652537;86;21300;-75
2022/07/23 12:43:35;;;;;;;;;;;;;;;29.77;41.06;155150.11;1652808;86;20091;-75
2022/07/23 12:46:20;;;;;;;;;;;;;;;29.73;41.53;155142.25;1652575;85;20190;-75
2022/07/23 12:48:54;;;;;;;;;;;;;;;29.72;41.48;155139.56;1652139;85;21212;-61
2022/07/23 12:51:23;;;;;;;;;;;;;;;29.75;40.37;155144.86;1620383;87;20481;-60
2022/07/23 12:53:54;;;;;;;;;;;;;;;29.75;39.64;155144.86;1620940;88;21150;-61